Time;durP1;ratioP1;P1;durP2;ratioP2;P2;SDS_P1;SDS_P2;PMS_P1;PMS_P2;Temp;Humidity;BMP_temperature;BMP_pressure;BME280_temperature;BME280_humidity;BME280_pressure;Samples;Min_cycle;Max_cycle;Signal;HPM_P1;HPM_P2
2022/07/10 00:00:14;;;;;;;4.47;4.05;;;;;;;15.29;100.00;96420.75;1030453;28;20407;-72
2022/07/10 00:00:44;;;;;;;4.88;4.00;;;;;;;15.29;100.00;96419.94;1030242;28;20026;-72
2022/07/10 00:01:15;;;;;;;5.60;4.13;;;;;;;15.30;100.00;96424.97;1036813;28;20382;-72
2022/07/10 00:01:45;;;;;;;5.93;4.30;;;;;;;15.27;100.00;96422.09;1032981;28;20026;-72
2022/07/10 00:02:16;;;;;;;5.65;4.25;;;;;;;15.26;100.00;96415.25;1033950;28;20788;-72
2022/07/10 00:02:47;;;;;;;6.25;4.70;;;;;;;15.31;100.00;96420.47;1035292;28;20109;-72
2022/07/10 00:03:17;;;;;;;4.90;4.40;;;;;;;15.31;100.00;96428.41;1038538;28;20021;-72
2022/07/10 00:03:49;;;;;;;8.80;4.07;;;;;;;15.28;100.00;96413.88;1038036;28;20021;-71
2022/07/10 00:04:20;;;;;;;4.93;4.03;;;;;;;15.34;100.00;96427.84;1034260;28;20025;-73
2022/07/10 00:04:50;;;;;;;6.80;4.07;;;;;;;15.33;100.00;96431.56;1034109;28;20028;-73
2022/07/10 00:05:21;;;;;;;6.20;4.05;;;;;;;15.32;100.00;96425.50;1034433;28;20021;-72
2022/07/10 00:05:52;;;;;;;6.20;4.28;;;;;;;15.32;100.00;96428.16;1033947;28;20029;-72
2022/07/10 00:06:22;;;;;;;5.07;4.25;;;;;;;15.31;100.00;96429.19;1036598;28;20022;-73
2022/07/10 00:06:55;;;;;;;8.52;4.90;;;;;;;15.31;100.00;96426.53;1033637;28;20014;-72
2022/07/10 00:07:26;;;;;;;6.45;4.38;;;;;;;15.30;100.00;96422.34;1030428;28;20027;-72
2022/07/10 00:07:56;;;;;;;5.45;4.10;;;;;;;15.28;100.00;96421.81;1033695;28;20088;-73
2022/07/10 00:08:27;;;;;;;6.45;4.43;;;;;;;15.28;100.00;96423.66;1030144;28;20031;-71
2022/07/10 00:08:57;;;;;;;5.10;4.60;;;;;;;14.85;100.00;96360.78;1030226;28;20029;-73
2022/07/10 00:09:28;;;;;;;5.95;4.80;;;;;;;15.26;100.00;96421.31;1030509;28;20030;-73
2022/07/10 00:09:59;;;;;;;10.05;5.38;;;;;;;15.21;100.00;96421.31;1029973;28;20050;-73
2022/07/10 00:10:30;;;;;;;6.03;4.70;;;;;;;15.23;100.00;96427.16;1030331;28;20030;-73
2022/07/10 00:11:00;;;;;;;5.35;4.50;;;;;;;15.22;100.00;96425.53;1026347;28;20022;-72
2022/07/10 00:11:31;;;;;;;5.15;4.60;;;;;;;15.21;100.00;96429.25;1028909;28;20026;-71
2022/07/10 00:12:02;;;;;;;6.88;4.43;;;;;;;15.11;100.00;96421.41;1029695;28;20030;-73
2022/07/10 00:12:32;;;;;;;8.10;4.88;;;;;;;15.15;100.00;96426.94;1034457;28;20119;-72
2022/07/10 00:13:03;;;;;;;8.80;4.70;;;;;;;15.19;100.00;96430.59;1031933;28;20038;-72
2022/07/10 00:13:33;;;;;;;7.53;4.60;;;;;;;15.15;100.00;96429.56;1033204;28;20779;-73
2022/07/10 00:14:04;;;;;;;11.23;5.00;;;;;;;15.15;100.00;96434.84;1033937;28;20026;-73
2022/07/10 00:14:34;;;;;;;7.07;5.15;;;;;;;15.12;100.00;96430.13;1030289;28;20037;-72
2022/07/10 00:15:05;;;;;;;7.28;5.18;;;;;;;15.09;100.00;96440.19;1027598;28;20026;-73
2022/07/10 00:15:36;;;;;;;5.70;4.97;;;;;;;15.07;100.00;96436.22;1030146;28;20613;-72
2022/07/10 00:16:06;;;;;;;6.30;5.05;;;;;;;15.06;100.00;96437.31;1026166;28;20019;-73
2022/07/10 00:16:37;;;;;;;6.30;5.10;;;;;;;15.03;100.00;96438.63;1030230;28;20733;-72
2022/07/10 00:17:07;;;;;;;6.72;6.05;;;;;;;14.99;100.00;96444.72;1029765;28;20033;-72
2022/07/10 00:17:39;;;;;;;9.77;5.18;;;;;;;14.98;100.00;96438.66;1030389;28;20058;-72
2022/07/10 00:18:09;;;;;;;5.90;5.00;;;;;;;14.97;100.00;96433.66;1031572;28;20022;-72
2022/07/10 00:18:40;;;;;;;5.63;5.00;;;;;;;14.96;100.00;96432.88;1023376;28;20062;-73
2022/07/10 00:19:10;;;;;;;7.57;4.78;;;;;;;14.94;100.00;96428.91;1026521;28;20042;-72
2022/07/10 00:19:41;;;;;;;5.15;4.75;;;;;;;14.94;100.00;96436.84;1022312;28;20066;-73
2022/07/10 00:20:12;;;;;;;6.05;5.05;;;;;;;14.87;100.00;96421.28;1029868;28;20668;-71
2022/07/10 00:20:45;;;;;;;6.97;5.32;;;;;;;14.90;100.00;96433.94;1018300;29;20024;-72
2022/07/10 00:21:16;;;;;;;7.63;5.47;;;;;;;14.89;100.00;96440.31;1018274;29;20463;-72
2022/07/10 00:21:47;;;;;;;5.82;5.20;;;;;;;14.83;100.00;96434.25;1017705;29;20012;-72
2022/07/10 00:22:17;;;;;;;5.88;5.10;;;;;;;14.84;100.00;96435.03;1025770;28;20031;-73
2022/07/10 00:22:48;;;;;;;5.68;5.18;;;;;;;14.80;100.00;96426.06;1018197;29;20392;-71
2022/07/10 00:23:18;;;;;;;7.85;5.38;;;;;;;14.82;100.00;96437.97;1021936;29;20123;-70
2022/07/10 00:23:49;;;;;;;8.73;6.00;;;;;;;14.77;100.00;96432.69;1017071;29;20020;-72
2022/07/10 00:24:19;;;;;;;6.03;5.43;;;;;;;14.78;100.00;96436.91;1025885;28;20040;-72
2022/07/10 00:24:52;;;;;;;7.63;5.47;;;;;;;14.79;100.00;96438.50;1029990;28;20499;-70
2022/07/10 00:25:23;;;;;;;6.18;5.57;;;;;;;14.78;100.00;96433.47;1033693;28;20354;-71
2022/07/10 00:25:56;;;;;;;6.00;5.50;;;;;;;14.75;100.00;96431.38;1030128;28;20093;-72
2022/07/10 00:26:26;;;;;;;8.68;5.63;;;;;;;14.73;100.00;96436.16;1026302;28;20306;-72
2022/07/10 00:26:57;;;;;;;7.60;5.68;;;;;;;14.66;100.00;96427.75;1021698;28;20022;-69
2022/07/10 00:27:28;;;;;;;6.78;5.68;;;;;;;14.68;100.00;96426.38;1026588;28;20023;-71
2022/07/10 00:27:58;;;;;;;8.88;6.53;;;;;;;14.65;100.00;96428.78;1021975;28;20030;-72
2022/07/10 00:28:29;;;;;;;7.20;6.47;;;;;;;14.63;100.00;96429.06;1022451;28;20024;-71
2022/07/10 00:28:59;;;;;;;7.50;5.70;;;;;;;14.58;100.00;96432.50;1031553;28;20045;-71
2022/07/10 00:29:30;;;;;;;8.18;6.30;;;;;;;14.57;100.00;96430.13;1033926;28;20025;-70
2022/07/10 00:30:01;;;;;;;8.20;7.40;;;;;;;14.54;100.00;96420.13;1032609;28;20096;-71
2022/07/10 00:30:31;;;;;;;8.30;6.93;;;;;;;14.55;100.00;96435.72;1026029;28;20015;-71
2022/07/10 00:31:02;;;;;;;7.90;6.97;;;;;;;14.52;100.00;96424.88;1021999;29;20031;-70
2022/07/10 00:31:32;;;;;;;10.32;7.13;;;;;;;14.56;100.00;96433.84;1022548;28;20133;-72
2022/07/10 00:32:03;;;;;;;8.13;7.30;;;;;;;14.55;100.00;96434.88;1021319;28;20166;-70
2022/07/10 00:32:34;;;;;;;7.70;6.90;;;;;;;14.53;100.00;96434.38;1026382;28;20519;-71
2022/07/10 00:33:04;;;;;;;7.32;6.55;;;;;;;14.52;100.00;96432.78;1026107;28;20094;-70
2022/07/10 00:33:35;;;;;;;9.80;8.23;;;;;;;14.52;100.00;96432.78;1030135;28;20457;-70
2022/07/10 00:34:06;;;;;;;9.05;8.15;;;;;;;14.48;100.00;96423.81;1026092;28;20859;-71
2022/07/10 00:34:36;;;;;;;8.32;7.07;;;;;;;14.51;100.00;96433.84;1026184;28;20023;-71
2022/07/10 00:35:07;;;;;;;12.90;9.05;;;;;;;14.52;100.00;96432.78;1026009;28;20126;-70
2022/07/10 00:35:37;;;;;;;9.55;8.32;;;;;;;14.53;100.00;96435.16;1026225;28;20768;-70
2022/07/10 00:36:08;;;;;;;13.02;7.50;;;;;;;14.53;100.00;96434.38;1030000;28;20030;-71
2022/07/10 00:36:39;;;;;;;11.02;7.60;;;;;;;14.51;100.00;96434.63;1034038;28;20101;-70
2022/07/10 00:37:10;;;;;;;8.93;7.47;;;;;;;14.50;100.00;96429.63;1029467;28;20044;-69
2022/07/10 00:37:41;;;;;;;9.95;7.80;;;;;;;14.48;100.00;96427.22;1030196;28;20108;-71
2022/07/10 00:38:12;;;;;;;7.90;7.03;;;;;;;14.46;100.00;96425.94;1030297;28;20529;-70
2022/07/10 00:38:42;;;;;;;8.63;7.10;;;;;;;14.46;100.00;96428.56;1022215;28;20518;-70
2022/07/10 00:39:15;;;;;;;8.70;7.53;;;;;;;14.45;100.00;96413.78;1028587;28;20029;-69
2022/07/10 00:39:46;;;;;;;9.20;7.63;;;;;;;14.46;100.00;96415.38;1026314;28;20137;-70
2022/07/10 00:40:16;;;;;;;9.95;8.93;;;;;;;14.48;100.00;96418.53;1026500;28;20026;-70
2022/07/10 00:40:47;;;;;;;9.82;8.88;;;;;;;14.48;100.00;96415.88;1030170;28;20501;-70
2022/07/10 00:41:17;;;;;;;9.68;8.68;;;;;;;14.49;100.00;96423.53;1022002;28;20023;-70
2022/07/10 00:41:48;;;;;;;10.55;7.88;;;;;;;14.51;100.00;96418.00;1025569;28;20057;-70
2022/07/10 00:42:18;;;;;;;9.63;8.68;;;;;;;14.52;100.00;96414.31;1022306;28;20023;-70
2022/07/10 00:42:49;;;;;;;8.98;8.15;;;;;;;14.52;100.00;96430.16;1026209;28;20434;-70
2022/07/10 00:43:19;;;;;;;9.07;8.18;;;;;;;14.53;100.00;96418.53;1025733;28;20522;-70
2022/07/10 00:43:59;;;;;;;10.80;8.70;;;;;;;14.49;100.00;96412.97;1025970;28;20131;-70
2022/07/10 00:44:30;;;;;;;10.73;9.63;;;;;;;14.53;100.00;96413.25;1021435;29;20030;-70
2022/07/10 00:45:00;;;;;;;9.43;8.30;;;;;;;14.54;100.00;96426.19;1024892;28;20081;-70
2022/07/10 00:45:31;;;;;;;9.85;8.85;;;;;;;14.54;100.00;96414.81;1025786;28;20609;-70
2022/07/10 00:46:01;;;;;;;10.65;9.55;;;;;;;14.53;100.00;96411.41;1029071;28;20029;-70
2022/07/10 00:46:32;;;;;;;9.27;7.72;;;;;;;14.52;100.00;96414.31;1026065;28;20050;-71
2022/07/10 00:47:04;;;;;;;8.10;7.40;;;;;;;14.53;100.00;96415.91;1029664;28;20065;-71
2022/07/10 00:47:34;;;;;;;10.68;7.75;;;;;;;14.54;100.00;96415.63;1027203;28;20019;-71
2022/07/10 00:48:05;;;;;;;9.65;8.52;;;;;;;14.55;100.00;96411.13;1030569;28;20610;-71
2022/07/10 00:48:35;;;;;;;11.77;8.98;;;;;;;14.55;100.00;96411.13;1038274;28;20025;-70
2022/07/10 00:49:06;;;;;;;11.90;8.85;;;;;;;14.50;100.00;96408.50;1029889;28;20679;-70
2022/07/10 00:49:38;;;;;;;9.57;7.13;;;;;;;14.50;100.00;96411.13;1021826;29;20023;-70
2022/07/10 00:50:09;;;;;;;7.45;6.75;;;;;;;14.41;100.00;96404.81;1014267;29;20020;-71
2022/07/10 00:50:40;;;;;;;7.97;6.22;;;;;;;14.40;100.00;96404.03;1026514;28;20027;-70
2022/07/10 00:51:10;;;;;;;6.75;6.05;;;;;;;14.41;100.00;96412.75;1022146;29;20106;-70
2022/07/10 00:51:41;;;;;;;8.30;7.50;;;;;;;14.41;100.00;96418.81;1021717;28;20084;-71
2022/07/10 00:52:12;;;;;;;9.00;8.05;;;;;;;14.43;100.00;96411.41;1014530;29;20016;-70
2022/07/10 00:52:43;;;;;;;8.63;7.72;;;;;;;14.44;100.00;96412.19;1028531;28;20418;-72
2022/07/10 00:53:13;;;;;;;9.52;7.80;;;;;;;14.43;100.00;96419.34;1026123;28;20022;-72
2022/07/10 00:53:44;;;;;;;8.10;7.30;;;;;;;14.43;100.00;96410.63;1034081;28;20159;-71
2022/07/10 00:54:15;;;;;;;9.80;7.45;;;;;;;14.44;100.00;96412.19;1025983;28;20050;-72
2022/07/10 00:54:50;;;;;;;11.25;8.50;;;;;;;14.40;100.00;96414.59;1026579;28;20019;-71
2022/07/10 00:55:21;;;;;;;8.48;7.50;;;;;;;14.43;100.00;96418.56;1021895;29;20051;-72
2022/07/10 00:55:51;;;;;;;8.50;7.68;;;;;;;14.41;100.00;96407.47;1025638;28;20022;-69
2022/07/10 00:56:25;;;;;;;12.07;8.07;;;;;;;14.38;100.00;96412.25;1021858;28;20559;-70
2022/07/10 00:56:56;;;;;;;9.95;8.95;;;;;;;14.43;100.00;96408.00;1027354;28;20093;-71
2022/07/10 00:57:26;;;;;;;10.50;9.40;;;;;;;14.43;100.00;96410.63;1033471;28;20115;-70
2022/07/10 00:57:57;;;;;;;10.25;8.77;;;;;;;14.42;100.00;96419.59;1033522;28;20014;-69
2022/07/10 00:58:27;;;;;;;10.13;9.13;;;;;;;14.41;100.00;96416.16;1033878;28;20026;-71
2022/07/10 00:58:58;;;;;;;10.05;8.98;;;;;;;14.45;100.00;96421.69;1030005;28;20100;-70
2022/07/10 00:59:28;;;;;;;9.75;8.48;;;;;;;14.45;100.00;96411.13;1029600;28;20065;-71
2022/07/10 00:59:59;;;;;;;11.68;9.10;;;;;;;14.44;100.00;96422.75;1029734;28;20058;-72
2022/07/10 01:00:29;;;;;;;9.90;8.25;;;;;;;14.46;100.00;96416.16;1022005;29;20023;-70
2022/07/10 01:01:00;;;;;;;9.80;8.80;;;;;;;14.45;100.00;96419.06;1021926;28;20043;-70
2022/07/10 01:01:32;;;;;;;9.02;8.15;;;;;;;14.43;100.00;96421.19;1025811;28;20023;-72
2022/07/10 01:02:03;;;;;;;12.00;7.93;;;;;;;14.43;100.00;96418.56;1028465;28;20414;-70
2022/07/10 01:02:34;;;;;;;8.48;7.65;;;;;;;14.34;100.00;96397.97;1018069;29;20576;-71
2022/07/10 01:03:04;;;;;;;8.63;7.82;;;;;;;14.39;100.00;96424.38;1021852;29;20019;-71
2022/07/10 01:03:34;;;;;;;8.90;8.00;;;;;;;14.38;100.00;96412.25;1021965;29;20615;-72
2022/07/10 01:04:06;;;;;;;9.88;8.88;;;;;;;14.35;100.00;96406.69;1022027;28;20019;-71
2022/07/10 01:04:36;;;;;;;13.13;8.90;;;;;;;14.36;100.00;96419.63;1026094;28;20526;-70
2022/07/10 01:05:07;;;;;;;9.70;8.80;;;;;;;14.31;100.00;96406.44;1029558;28;20025;-70
2022/07/10 01:05:37;;;;;;;9.45;8.55;;;;;;;14.34;100.00;96416.44;1025674;28;20030;-71
2022/07/10 01:06:08;;;;;;;9.50;8.60;;;;;;;14.32;100.00;96418.59;1029480;28;20509;-71
2022/07/10 01:06:39;;;;;;;9.52;8.63;;;;;;;14.29;100.00;96418.34;1029897;28;20027;-71
2022/07/10 01:07:09;;;;;;;10.35;9.35;;;;;;;14.25;100.00;96412.00;1030012;28;20014;-71
2022/07/10 01:07:42;;;;;;;9.52;8.60;;;;;;;14.25;100.00;96418.09;1024770;28;20050;-71
2022/07/10 01:08:13;;;;;;;9.00;8.07;;;;;;;14.22;100.00;96415.97;1015183;29;20028;-72
2022/07/10 01:08:43;;;;;;;8.02;7.22;;;;;;;14.18;100.00;96412.28;1017991;29;20071;-71
2022/07/10 01:09:14;;;;;;;8.50;7.70;;;;;;;14.15;100.00;96418.09;1018305;28;20020;-71
2022/07/10 01:09:44;;;;;;;8.65;7.85;;;;;;;14.13;100.00;96421.00;1023831;28;20015;-71
2022/07/10 01:10:15;;;;;;;8.85;7.85;;;;;;;14.04;100.00;96406.00;1029371;28;20049;-71
2022/07/10 01:10:45;;;;;;;13.02;8.70;;;;;;;14.08;100.00;96415.75;1030036;28;20174;-72
2022/07/10 01:11:16;;;;;;;9.90;8.90;;;;;;;14.08;100.00;96412.31;1029849;28;20015;-72
2022/07/10 01:11:46;;;;;;;11.10;9.95;;;;;;;14.03;100.00;96410.47;1025392;28;20379;-71
2022/07/10 01:12:17;;;;;;;11.52;9.48;;;;;;;14.04;100.00;96406.00;1029564;28;20019;-71
2022/07/10 01:12:47;;;;;;;10.13;8.95;;;;;;;14.04;100.00;96411.25;1025822;28;20023;-71
2022/07/10 01:13:18;;;;;;;9.65;8.75;;;;;;;14.03;100.00;96412.31;1025545;28;20023;-71
2022/07/10 01:13:48;;;;;;;9.93;9.02;;;;;;;14.01;100.00;96411.78;1025873;28;20026;-70
2022/07/10 01:14:19;;;;;;;10.52;9.52;;;;;;;14.01;100.00;96414.44;1025941;28;20087;-70
2022/07/10 01:14:49;;;;;;;12.10;10.23;;;;;;;14.01;100.00;96412.59;1025846;28;20787;-71
2022/07/10 01:15:19;;;;;;;11.15;9.82;;;;;;;14.01;100.00;96417.06;1026092;28;20058;-71
2022/07/10 01:15:50;;;;;;;9.98;8.95;;;;;;;14.00;100.00;96407.59;1021881;29;20015;-71
2022/07/10 01:16:22;;;;;;;9.63;8.55;;;;;;;14.01;100.00;96406.53;1018005;28;20031;-71
2022/07/10 01:16:53;;;;;;;12.77;9.43;;;;;;;13.98;100.00;96407.84;1025797;28;20019;-71
2022/07/10 01:17:24;;;;;;;10.40;9.25;;;;;;;14.00;100.00;96404.94;1021500;29;20038;-71
2022/07/10 01:17:55;;;;;;;11.52;10.00;;;;;;;13.99;100.00;96406.00;1022019;29;20483;-70
2022/07/10 01:18:26;;;;;;;12.75;10.65;;;;;;;14.01;100.00;96407.31;1021585;29;20118;-70
2022/07/10 01:18:57;;;;;;;10.75;9.65;;;;;;;13.94;100.00;96403.38;1022515;28;20023;-70
2022/07/10 01:19:27;;;;;;;13.38;9.27;;;;;;;14.00;100.00;96411.00;1026280;28;20158;-70
2022/07/10 01:19:58;;;;;;;10.40;9.32;;;;;;;13.99;100.00;96411.28;1027637;28;20687;-71
2022/07/10 01:20:32;;;;;;;13.75;9.65;;;;;;;14.00;100.00;96412.88;1030056;28;20050;-71
2022/07/10 01:21:03;;;;;;;11.23;9.25;;;;;;;13.98;100.00;96407.06;1030030;28;20026;-71
2022/07/10 01:21:34;;;;;;;12.43;9.93;;;;;;;13.99;100.00;96408.66;1031185;28;20569;-70
2022/07/10 01:22:05;;;;;;;10.88;9.80;;;;;;;13.99;100.00;96412.06;1028581;28;20022;-70
2022/07/10 01:22:38;;;;;;;10.48;8.93;;;;;;;13.98;100.00;96418.38;1022047;28;20023;-70
2022/07/10 01:23:11;;;;;;;11.77;9.13;;;;;;;13.98;100.00;96412.31;1026769;28;20675;-71
2022/07/10 01:23:42;;;;;;;13.40;9.07;;;;;;;13.98;100.00;96407.84;1019913;29;20019;-71
2022/07/10 01:24:12;;;;;;;15.15;10.27;;;;;;;13.98;100.00;96407.84;1018715;29;20024;-70
2022/07/10 01:24:43;;;;;;;13.98;10.00;;;;;;;13.99;100.00;96413.94;1021915;29;20027;-70
2022/07/10 01:25:13;;;;;;;10.73;9.63;;;;;;;13.99;100.00;96406.00;1021922;28;20590;-70
2022/07/10 01:25:44;;;;;;;9.75;8.73;;;;;;;13.99;100.00;96406.00;1025802;28;20041;-70
2022/07/10 01:26:14;;;;;;;11.27;9.52;;;;;;;14.00;100.00;96412.88;1030156;28;20042;-71
2022/07/10 01:26:45;;;;;;;9.90;8.85;;;;;;;13.99;100.00;96411.28;1033848;28;20014;-69
2022/07/10 01:27:15;;;;;;;12.88;9.05;;;;;;;14.00;100.00;96415.50;1028295;28;20054;-70
2022/07/10 01:27:46;;;;;;;11.30;10.13;;;;;;;13.95;100.00;96407.59;1030072;28;20977;-70
2022/07/10 01:28:17;;;;;;;11.32;9.52;;;;;;;14.00;100.00;96420.78;1029744;28;20045;-71
2022/07/10 01:28:48;;;;;;;10.32;9.23;;;;;;;13.95;100.00;96400.47;1029663;28;20022;-70
2022/07/10 01:29:19;;;;;;;10.50;9.40;;;;;;;13.98;100.00;96412.31;1025585;28;20019;-71
2022/07/10 01:29:49;;;;;;;9.52;8.57;;;;;;;13.97;100.00;96410.75;1024171;28;20031;-71
2022/07/10 01:30:20;;;;;;;10.45;8.27;;;;;;;13.99;100.00;96416.56;1025555;28;20255;-70
2022/07/10 01:30:51;;;;;;;9.75;8.70;;;;;;;13.99;100.00;96414.72;1033805;28;20013;-72
2022/07/10 01:31:26;;;;;;;9.90;8.95;;;;;;;14.00;100.00;96415.50;1029698;28;20100;-70
2022/07/10 01:31:59;;;;;;;9.45;8.55;;;;;;;13.99;100.00;96414.72;1029693;28;20309;-71
2022/07/10 01:32:37;;;;;;;9.60;8.60;;;;;;;14.00;100.00;96415.50;1024970;28;20808;-71
2022/07/10 01:33:07;;;;;;;9.77;8.77;;;;;;;13.98;100.00;96412.31;1025760;28;20042;-69
2022/07/10 01:33:37;;;;;;;9.77;8.88;;;;;;;13.94;100.00;96408.66;1029668;28;20030;-70
2022/07/10 01:34:09;;;;;;;9.15;8.25;;;;;;;13.93;100.00;96413.13;1022592;28;20015;-71
2022/07/10 01:34:39;;;;;;;8.20;7.40;;;;;;;13.95;100.00;96418.13;1025422;28;20451;-70
2022/07/10 01:35:13;;;;;;;9.30;8.15;;;;;;;13.89;100.00;96415.53;1025496;28;20014;-69
2022/07/10 01:35:43;;;;;;;8.63;7.82;;;;;;;13.92;100.00;96416.84;1022494;28;20015;-70
2022/07/10 01:36:14;;;;;;;8.80;7.90;;;;;;;13.91;100.00;96410.75;1022005;29;20464;-71
2022/07/10 01:36:44;;;;;;;10.40;8.50;;;;;;;13.90;100.00;96414.44;1018106;29;20019;-72
2022/07/10 01:37:15;;;;;;;11.30;9.10;;;;;;;13.90;100.00;96417.09;1018425;29;20023;-71
2022/07/10 01:37:45;;;;;;;10.35;9.23;;;;;;;13.86;100.00;96410.00;1018004;29;20114;-71
2022/07/10 01:38:16;;;;;;;9.88;8.90;;;;;;;13.88;100.00;96413.94;1018125;29;20022;-70
2022/07/10 01:38:47;;;;;;;12.00;9.27;;;;;;;13.86;100.00;96421.31;1018211;29;20031;-72
2022/07/10 01:39:17;;;;;;;10.52;9.43;;;;;;;13.85;100.00;96413.69;1025260;28;20027;-71
2022/07/10 01:39:48;;;;;;;12.15;10.15;;;;;;;13.84;100.00;96417.38;1025912;28;20042;-71
2022/07/10 01:40:18;;;;;;;10.85;9.75;;;;;;;13.82;100.00;96415.00;1029596;28;20053;-71
2022/07/10 01:40:49;;;;;;;13.25;9.52;;;;;;;13.75;100.00;96409.22;1031849;28;20050;-71
2022/07/10 01:41:19;;;;;;;10.50;9.40;;;;;;;13.77;100.00;96415.00;1029886;28;20065;-70
2022/07/10 01:41:50;;;;;;;11.70;10.52;;;;;;;13.77;100.00;96416.84;1025192;28;20461;-70
2022/07/10 01:42:20;;;;;;;13.45;10.15;;;;;;;13.77;100.00;96417.63;1021860;28;20551;-70
2022/07/10 01:42:51;;;;;;;13.30;10.82;;;;;;;13.75;100.00;96406.59;1022047;28;20031;-71
2022/07/10 01:43:21;;;;;;;12.80;10.93;;;;;;;13.74;100.00;96412.09;1022030;28;20539;-71
2022/07/10 01:43:52;;;;;;;13.02;11.73;;;;;;;13.73;100.00;96411.31;1021879;28;20023;-71
2022/07/10 01:44:22;;;;;;;12.68;9.77;;;;;;;13.71;100.00;96408.16;1028845;28;20025;-71
2022/07/10 01:44:53;;;;;;;16.88;11.10;;;;;;;13.73;100.00;96418.44;1029576;28;20019;-71
2022/07/10 01:45:24;;;;;;;12.20;10.43;;;;;;;13.71;100.00;96410.00;1033924;28;20030;-71
2022/07/10 01:45:54;;;;;;;12.23;10.07;;;;;;;13.70;100.00;96403.94;1027545;28;20037;-70
2022/07/10 01:46:25;;;;;;;11.10;10.00;;;;;;;13.71;100.00;96421.34;1029963;28;20023;-72
2022/07/10 01:46:56;;;;;;;12.68;10.55;;;;;;;13.71;100.00;96412.63;1029794;28;20029;-71
2022/07/10 01:47:27;;;;;;;13.50;10.25;;;;;;;13.68;100.00;96408.66;1025801;28;20018;-71
2022/07/10 01:47:58;;;;;;;13.15;9.93;;;;;;;13.67;100.00;96407.09;1025658;28;20125;-71
2022/07/10 01:48:29;;;;;;;15.23;10.20;;;;;;;13.66;100.00;96416.06;1025730;28;20081;-71
2022/07/10 01:49:02;;;;;;;11.20;9.98;;;;;;;13.64;100.00;96413.69;1018689;29;20095;-71
2022/07/10 01:49:34;;;;;;;12.50;9.95;;;;;;;13.59;100.00;96405.00;1025681;28;20668;-71
2022/07/10 01:50:05;;;;;;;11.93;10.65;;;;;;;13.60;100.00;96407.38;1026323;28;20023;-71
2022/07/10 01:50:35;;;;;;;12.98;11.10;;;;;;;13.60;100.00;96412.66;1026003;28;20123;-72
2022/07/10 01:51:06;;;;;;;11.88;10.40;;;;;;;13.59;100.00;96412.91;1018957;29;20028;-71
2022/07/10 01:51:36;;;;;;;12.60;10.93;;;;;;;13.56;100.00;96408.16;1013651;29;20087;-68
2022/07/10 01:52:07;;;;;;;10.38;9.38;;;;;;;13.56;100.00;96416.09;1017738;28;20057;-71
2022/07/10 01:52:37;;;;;;;12.07;10.25;;;;;;;13.55;100.00;96417.16;1027119;28;20033;-72
2022/07/10 01:53:08;;;;;;;11.25;9.68;;;;;;;13.55;100.00;96414.50;1022000;29;20035;-72
2022/07/10 01:53:38;;;;;;;11.68;10.48;;;;;;;13.53;100.00;96411.34;1026038;28;20030;-71
2022/07/10 01:54:09;;;;;;;12.60;10.20;;;;;;;13.53;100.00;96408.69;1017684;29;20012;-71
2022/07/10 01:54:39;;;;;;;12.85;11.13;;;;;;;13.52;100.00;96409.75;1022059;28;20057;-72
2022/07/10 01:55:10;;;;;;;13.70;10.80;;;;;;;13.52;100.00;96410.56;1017837;29;20059;-71
2022/07/10 01:55:40;;;;;;;11.73;10.35;;;;;;;13.46;100.00;96410.81;1021988;28;20096;-70
2022/07/10 01:56:11;;;;;;;13.32;11.13;;;;;;;13.47;100.00;96412.38;1019151;29;20059;-71
2022/07/10 01:56:42;;;;;;;14.77;10.90;;;;;;;13.50;100.00;96414.50;1025615;28;20700;-71
2022/07/10 01:57:13;;;;;;;12.15;10.93;;;;;;;13.44;100.00;96409.22;1021797;28;20067;-71
2022/07/10 01:57:43;;;;;;;12.18;10.95;;;;;;;13.48;100.00;96424.50;1029506;28;20025;-72
2022/07/10 01:58:14;;;;;;;12.80;11.50;;;;;;;13.42;100.00;96413.19;1033332;28;20080;-71
2022/07/10 01:58:44;;;;;;;12.88;11.43;;;;;;;13.45;100.00;96417.94;1029946;28;20022;-72
2022/07/10 01:59:15;;;;;;;11.70;10.52;;;;;;;13.43;100.00;96412.91;1029989;28;20534;-71
2022/07/10 01:59:48;;;;;;;13.07;11.73;;;;;;;13.40;100.00;96413.44;1029869;28;20014;-72
2022/07/10 02:00:18;;;;;;;13.30;12.00;;;;;;;13.38;100.00;96415.56;1021403;29;20083;-71
2022/07/10 02:00:49;;;;;;;14.45;12.93;;;;;;;13.37;100.00;96410.53;1017598;29;20626;-71
2022/07/10 02:01:19;;;;;;;15.35;13.68;;;;;;;13.34;100.00;96408.41;1016941;29;20055;-72
2022/07/10 02:01:50;;;;;;;14.25;12.73;;;;;;;13.33;100.00;96405.00;1017403;28;20024;-71
2022/07/10 02:02:21;;;;;;;13.60;12.20;;;;;;;13.32;100.00;96406.06;1021745;28;20027;-72
2022/07/10 02:04:42;;;;;;;15.88;13.05;;;;;;;13.26;100.00;96401.06;1026834;28;20023;-71
2022/07/10 02:05:12;;;;;;;13.48;12.07;;;;;;;13.22;100.00;96398.13;1021952;29;20046;-70
2022/07/10 02:05:42;;;;;;;14.55;12.90;;;;;;;13.21;100.00;96401.78;1021666;28;20518;-71
2022/07/10 02:06:13;;;;;;;14.95;13.45;;;;;;;13.19;100.00;96401.28;1026820;28;20030;-70
2022/07/10 02:06:44;;;;;;;15.27;13.77;;;;;;;13.18;100.00;96394.44;1031202;28;20113;-70
2022/07/10 02:07:18;;;;;;;14.68;13.20;;;;;;;13.17;100.00;96400.75;1038124;28;20064;-70
2022/07/10 02:07:49;;;;;;;18.23;14.00;;;;;;;13.14;100.00;96396.78;1033713;28;20268;-71
2022/07/10 02:08:19;;;;;;;15.50;13.90;;;;;;;13.14;100.00;96403.91;1034201;28;20091;-71
2022/07/10 02:08:49;;;;;;;15.13;13.57;;;;;;;13.12;100.00;96396.28;1029634;28;20371;-72
2022/07/10 02:09:20;;;;;;;19.58;14.35;;;;;;;13.12;100.00;96395.47;1029108;28;20061;-71
2022/07/10 02:09:50;;;;;;;24.67;15.50;;;;;;;13.12;100.00;96403.38;1028654;28;20022;-71
2022/07/10 02:10:21;;;;;;;22.08;13.45;;;;;;;13.11;100.00;96396.50;1025602;28;20015;-71
2022/07/10 02:10:51;;;;;;;16.02;13.57;;;;;;;13.11;100.00;96399.97;1025777;28;20106;-71
2022/07/10 02:11:22;;;;;;;19.23;12.52;;;;;;;13.11;100.00;96401.78;1025910;28;20086;-71
2022/07/10 02:11:52;;;;;;;17.20;15.38;;;;;;;13.08;100.00;96405.75;1025294;28;20082;-70
2022/07/10 02:12:23;;;;;;;15.73;14.18;;;;;;;13.05;100.00;96393.09;1034242;28;20026;-71
2022/07/10 02:12:53;;;;;;;15.60;13.68;;;;;;;13.06;100.00;96397.31;1033830;28;20056;-71
2022/07/10 02:13:27;;;;;;;17.08;13.93;;;;;;;13.07;100.00;96406.00;1033961;28;20018;-72
2022/07/10 02:13:57;;;;;;;15.98;14.15;;;;;;;13.06;100.00;96396.53;1034190;28;20026;-71
2022/07/10 02:14:28;;;;;;;17.27;15.32;;;;;;;13.03;100.00;96397.81;1029873;28;20029;-71
2022/07/10 02:15:00;;;;;;;15.15;13.65;;;;;;;13.03;100.00;96399.69;1033601;28;20026;-71
2022/07/10 02:15:30;;;;;;;16.70;14.70;;;;;;;13.04;100.00;96402.03;1033912;28;20026;-71
2022/07/10 02:16:04;;;;;;;17.40;14.70;;;;;;;13.04;100.00;96398.63;1029951;28;20577;-71
2022/07/10 02:16:35;;;;;;;16.88;15.10;;;;;;;13.03;100.00;96404.94;1025951;28;20065;-71
2022/07/10 02:17:06;;;;;;;16.45;14.75;;;;;;;13.01;100.00;96399.13;1026233;28;20026;-71
2022/07/10 02:17:37;;;;;;;16.98;15.27;;;;;;;13.01;100.00;96399.13;1025803;28;20023;-71
2022/07/10 02:18:08;;;;;;;18.25;15.35;;;;;;;13.02;100.00;96404.16;1022142;28;20019;-71
2022/07/10 02:18:39;;;;;;;15.80;13.68;;;;;;;13.02;100.00;96390.19;1025719;28;20465;-71
2022/07/10 02:19:09;;;;;;;14.77;13.18;;;;;;;13.00;100.00;96402.84;1033960;28;20101;-72
2022/07/10 02:19:40;;;;;;;15.10;13.55;;;;;;;13.03;100.00;96397.81;1029765;28;20035;-72
2022/07/10 02:20:10;;;;;;;16.23;13.90;;;;;;;13.02;100.00;96395.47;1033857;28;20070;-71
2022/07/10 02:20:41;;;;;;;14.25;12.52;;;;;;;13.03;100.00;96397.03;1026355;28;20070;-71
2022/07/10 02:21:12;;;;;;;18.35;14.63;;;;;;;13.02;100.00;96403.38;1025791;28;20061;-71
2022/07/10 02:21:42;;;;;;;14.30;12.75;;;;;;;13.03;100.00;96397.81;1031567;28;20034;-71
2022/07/10 02:22:13;;;;;;;13.48;12.07;;;;;;;13.03;100.00;96402.31;1023706;28;20086;-71
2022/07/10 02:22:47;;;;;;;15.68;13.48;;;;;;;13.03;100.00;96402.31;1023097;28;20023;-70
2022/07/10 02:23:17;;;;;;;15.60;13.77;;;;;;;13.02;100.00;96406.00;1022495;29;20117;-71
2022/07/10 02:23:47;;;;;;;17.45;13.77;;;;;;;13.01;100.00;96405.22;1021454;28;20059;-72
2022/07/10 02:24:18;;;;;;;16.40;14.00;;;;;;;13.01;100.00;96405.22;1027319;28;20019;-72